Portada
METAR-TAF:

METAR-TAF

Aeroports :

Bacău, Romania

latitud: 46-35N, longitud: 026-58E, altitud: 184 m

Observació

L'informe es va fer fa 43 minuts, a les 02:00 UTC
Vent 12 kt del Nord/Nord-Oest
Temperatura 12°C
Humitat 88%
Pressió 1019 hPa
Visibilitat 10 km o més
Cel ennuvolat a una alçada de 1600 ft
Cel ennuvolat a una alçada de 3400 ft

METAR: LRBC 280200Z 34012KT 9999 BKN016 BKN034 12/10 Q1019

Hora: 05:43 (02:43 UTC)

Pronòstic

L'informe es va fer fa 3 hores i 43 minuts, a les 23:00 UTC
Pronòstic vàlid del 28 a les 00 UTC al 28 a les 09 UTC
Vent 10 kt del Nord/Nord-Oest
Visibilitat 10 km o més
Cel ennuvolat a una alçada de 2000 ft
Núvols disperses a una alçada de 4000 ft, Cumulonimbus.
Temporalment
l' 28 a les 00 UTC al 28 a les 03 UTC
Visibilitat: 5000 m
xàfecs de pluja
Temporalment
l' 28 a les 06 UTC al 28 a les 09 UTC
Visibilitat: 5000 m
xàfecs de pluja

TAF: LRBC 272300Z 2800/2809 34010KT 9999 BKN020 SCT040CB TEMPO 2800/2803 5000 -SHRA TEMPO 2806/2809 5000 -SHRA

Observacions i pronòstics meteorològics de més de 4000 aeroports (METAR i TAF).

Les estacions disponibles són els punts grocs i vermells al mapa.

Posi el ratolí al punt desitjat per veure el nom de l'estació.

Feu clic per veure les observacions i els pronòstics meteorològics.

Per canviar el mapa: feu clic els botons verds amb una creu de color negre per apropar; al botó verd amb un guió per allunyar la imatge; o en les fletxes verdes per a mapes adjacents.


METAR-TAF: